Time;durP1;ratioP1;P1;durP2;ratioP2;P2;SDS_P1;SDS_P2;PMS_P1;PMS_P2;Temp;Humidity;BMP_temperature;BMP_pressure;BME280_temperature;BME280_humidity;BME280_pressure;Samples;Min_cycle;Max_cycle;Signal;HPM_P1;HPM_P2
2023/10/21 00:02:10;;;;;;;18.52;13.27;;;;;;;-146.61;100.00;58846.50;5113586;27;20039;-78
2023/10/21 00:04:56;;;;;;;24.60;13.63;;;;;;;-146.61;100.00;58846.50;5111951;27;20423;-77
2023/10/21 00:07:44;;;;;;;23.38;13.95;;;;;;;-146.61;100.00;58846.50;5118261;27;20118;-79
2023/10/21 00:10:31;;;;;;;27.17;14.80;;;;;;;-146.61;100.00;58846.50;5117725;27;20055;-75
2023/10/21 00:13:17;;;;;;;25.98;16.20;;;;;;;-146.61;100.00;58846.50;5114115;27;20265;-77
2023/10/21 00:16:04;;;;;;;22.92;14.70;;;;;;;-146.61;100.00;58846.50;5120446;27;20673;-78
2023/10/21 00:18:51;;;;;;;27.48;17.20;;;;;;;-146.61;100.00;58846.50;5120051;27;20047;-77
2023/10/21 00:21:40;;;;;;;29.10;17.10;;;;;;;-146.61;100.00;58846.50;5116966;27;20280;-77
2023/10/21 00:24:26;;;;;;;25.27;15.38;;;;;;;-146.61;100.00;58846.50;5112855;27;20042;-78
2023/10/21 00:27:13;;;;;;;23.67;14.93;;;;;;;-146.61;100.00;58846.50;5120442;27;20035;-78
2023/10/21 00:30:00;;;;;;;23.15;15.55;;;;;;;-146.61;100.00;58846.50;5122478;27;20746;-76
2023/10/21 00:32:46;;;;;;;30.33;18.13;;;;;;;-146.61;100.00;58846.50;5123599;27;20066;-76
2023/10/21 00:35:33;;;;;;;31.83;18.02;;;;;;;-146.61;100.00;58846.50;5125391;27;20110;-78
2023/10/21 00:38:20;;;;;;;34.60;19.40;;;;;;;-146.61;100.00;58846.50;5118483;27;20279;-79
2023/10/21 00:41:06;;;;;;;47.05;19.27;;;;;;;-146.61;100.00;58846.50;5113004;27;20620;-78
2023/10/21 00:43:53;;;;;;;35.47;18.15;;;;;;;-146.61;100.00;58846.50;5116071;27;20050;-78
2023/10/21 00:46:42;;;;;;;64.18;21.20;;;;;;;-146.61;100.00;58846.50;5118395;27;20043;-79
2023/10/21 00:49:30;;;;;;;97.75;23.33;;;;;;;-146.61;100.00;58846.50;5127966;27;20107;-76
2023/10/21 00:52:17;;;;;;;95.57;22.50;;;;;;;-146.61;100.00;58846.50;5120270;27;20051;-78
2023/10/21 00:55:05;;;;;;;92.90;24.10;;;;;;;-146.61;100.00;58846.50;5117671;27;20046;-78
2023/10/21 00:57:54;;;;;;;108.78;29.10;;;;;;;-146.61;100.00;58846.50;5111235;27;20594;-78
2023/10/21 01:00:40;;;;;;;80.78;24.20;;;;;;;-146.61;100.00;58846.50;5115368;27;20039;-78
2023/10/21 01:03:27;;;;;;;74.35;23.02;;;;;;;-146.61;100.00;58846.50;5115893;27;20047;-76
2023/10/21 01:06:14;;;;;;;93.68;22.42;;;;;;;-146.61;100.00;58846.50;5121957;27;20078;-78
2023/10/21 01:09:01;;;;;;;67.00;21.15;;;;;;;-146.61;100.00;58846.50;5124834;27;20180;-80
2023/10/21 01:11:48;;;;;;;54.58;21.02;;;;;;;-146.61;100.00;58846.50;5118323;27;20051;-75
2023/10/21 01:14:35;;;;;;;39.63;18.77;;;;;;;-146.61;100.00;58846.50;5118622;27;20050;-77
2023/10/21 01:17:21;;;;;;;43.58;21.77;;;;;;;-146.61;100.00;58846.50;5116136;27;20047;-78
2023/10/21 01:20:09;;;;;;;83.40;23.52;;;;;;;-146.61;100.00;58846.50;5119317;27;20047;-76
2023/10/21 01:22:57;;;;;;;101.15;23.30;;;;;;;-146.61;100.00;58846.50;5094688;27;20681;-78
2023/10/21 01:25:44;;;;;;;76.97;22.35;;;;;;;-146.61;100.00;58846.50;5113915;27;20915;-78
2023/10/21 01:28:32;;;;;;;45.45;20.23;;;;;;;-146.61;100.00;58846.50;5118764;27;20651;-78
2023/10/21 01:31:19;;;;;;;39.35;16.92;;;;;;;-146.61;100.00;58846.50;5113186;27;20462;-75
2023/10/21 01:34:05;;;;;;;38.38;19.27;;;;;;;-146.61;100.00;58846.50;5123998;27;20050;-78
2023/10/21 01:36:52;;;;;;;70.25;20.63;;;;;;;-146.61;100.00;58846.50;5116741;27;20054;-78
2023/10/21 01:39:40;;;;;;;47.42;18.70;;;;;;;-146.61;100.00;58846.50;5114586;27;20826;-81
2023/10/21 01:42:28;;;;;;;36.60;18.55;;;;;;;-146.61;100.00;58846.50;5120926;27;20035;-78
2023/10/21 01:45:15;;;;;;;48.83;18.48;;;;;;;-146.61;100.00;58846.50;5120757;27;20047;-79
2023/10/21 01:48:04;;;;;;;34.22;17.40;;;;;;;-146.61;100.00;58846.50;5114566;27;20051;-75
2023/10/21 01:51:00;;;;;;;60.00;19.65;;;;;;;-146.61;100.00;58846.50;5113984;27;20043;-78
2023/10/21 01:53:46;;;;;;;48.40;19.15;;;;;;;-146.61;100.00;58846.50;5118085;27;20123;-75
2023/10/21 01:56:33;;;;;;;48.10;18.65;;;;;;;-146.61;100.00;58846.50;5114968;27;20150;-78
2023/10/21 01:59:20;;;;;;;43.97;18.42;;;;;;;-146.61;100.00;58846.50;5114844;27;20793;-78
2023/10/21 02:02:10;;;;;;;37.13;17.23;;;;;;;-146.61;100.00;58846.50;5118698;27;20045;-76
2023/10/21 02:04:57;;;;;;;47.70;19.48;;;;;;;-146.61;100.00;58846.50;5116874;27;20046;-78
2023/10/21 02:07:43;;;;;;;55.10;18.45;;;;;;;-146.61;100.00;58846.50;5118732;27;20643;-77
2023/10/21 02:10:30;;;;;;;43.55;18.65;;;;;;;-146.61;100.00;58846.50;5109547;27;20051;-78
2023/10/21 02:13:17;;;;;;;39.42;19.10;;;;;;;-146.61;100.00;58846.50;5113633;27;20042;-77
2023/10/21 02:16:09;;;;;;;46.13;18.10;;;;;;;-146.61;100.00;58846.50;5116496;27;20047;-78
2023/10/21 02:18:56;;;;;;;43.33;19.08;;;;;;;-146.61;100.00;58846.50;5108245;27;20110;-77
2023/10/21 02:21:43;;;;;;;30.73;16.83;;;;;;;-146.61;100.00;58846.50;5113967;27;20042;-79
2023/10/21 02:24:30;;;;;;;47.20;17.50;;;;;;;-146.61;100.00;58846.50;5114257;27;20607;-77
2023/10/21 02:27:16;;;;;;;51.33;19.42;;;;;;;-146.61;100.00;58846.50;5117030;27;20054;-79
2023/10/21 02:30:04;;;;;;;46.42;18.45;;;;;;;-146.61;100.00;58846.50;5115589;27;20055;-79
2023/10/21 02:32:51;;;;;;;37.97;16.90;;;;;;;-146.61;100.00;58846.50;5111735;27;20130;-78
2023/10/21 02:35:38;;;;;;;26.10;14.55;;;;;;;-146.61;100.00;58846.50;5119159;27;20042;-75
2023/10/21 02:38:25;;;;;;;29.63;16.77;;;;;;;-146.61;100.00;58846.50;5116479;27;20122;-77
2023/10/21 02:41:12;;;;;;;28.10;15.60;;;;;;;-146.61;100.00;58846.50;5124133;27;20164;-80
2023/10/21 02:43:58;;;;;;;24.17;16.42;;;;;;;-146.61;100.00;58846.50;5126996;27;20047;-75
2023/10/21 02:46:45;;;;;;;31.30;16.00;;;;;;;-146.61;100.00;58846.50;5114858;27;20080;-77
2023/10/21 02:49:32;;;;;;;33.83;17.05;;;;;;;-146.61;100.00;58846.50;5117061;27;20047;-78
2023/10/21 02:52:19;;;;;;;33.70;16.48;;;;;;;-146.61;100.00;58846.50;5117767;27;20213;-77
2023/10/21 02:55:07;;;;;;;39.13;16.83;;;;;;;-146.61;100.00;58846.50;5122450;27;20047;-79
2023/10/21 02:57:54;;;;;;;36.55;17.70;;;;;;;-146.61;100.00;58846.50;5114374;27;20551;-76
2023/10/21 03:00:41;;;;;;;29.65;16.95;;;;;;;-146.61;100.00;58846.50;5111160;27;20051;-79
2023/10/21 03:03:28;;;;;;;35.30;17.73;;;;;;;-146.61;100.00;58846.50;5116214;27;20137;-78
2023/10/21 03:06:16;;;;;;;25.35;16.50;;;;;;;-146.61;100.00;58846.50;5114317;27;20043;-76
2023/10/21 03:09:06;;;;;;;29.15;17.35;;;;;;;-146.61;100.00;58846.50;5115328;27;20713;-76
2023/10/21 03:11:52;;;;;;;27.73;16.65;;;;;;;-146.61;100.00;58846.50;5117611;27;20518;-78
2023/10/21 03:14:39;;;;;;;28.45;16.40;;;;;;;-146.61;100.00;58846.50;5121156;27;20049;-78
2023/10/21 03:17:27;;;;;;;26.38;15.70;;;;;;;-146.61;100.00;58846.50;5114038;27;20043;-79
2023/10/21 03:20:14;;;;;;;25.40;15.98;;;;;;;-146.61;100.00;58846.50;5109194;27;20521;-77
2023/10/21 03:23:01;;;;;;;30.48;17.45;;;;;;;-146.61;100.00;58846.50;5112407;27;20093;-79
2023/10/21 03:26:03;;;;;;;26.13;16.45;;;;;;;-146.61;100.00;58846.50;5116402;27;20047;-78
2023/10/21 03:28:50;;;;;;;26.10;15.23;;;;;;;-146.61;100.00;58846.50;5115793;27;20050;-76
2023/10/21 03:31:37;;;;;;;28.98;17.65;;;;;;;-146.61;100.00;58846.50;5110945;27;20561;-78
2023/10/21 03:34:24;;;;;;;25.83;14.25;;;;;;;-146.61;100.00;58846.50;5113155;27;20047;-76
2023/10/21 03:37:10;;;;;;;25.33;14.52;;;;;;;-146.61;100.00;58846.50;5112154;27;20900;-80
2023/10/21 03:39:57;;;;;;;24.52;15.48;;;;;;;-146.61;100.00;58846.50;5118140;27;20227;-81
2023/10/21 03:42:43;;;;;;;24.20;15.02;;;;;;;-146.61;100.00;58846.50;5114435;27;20055;-78
2023/10/21 03:45:30;;;;;;;21.45;14.77;;;;;;;-146.61;100.00;58846.50;5111165;27;20047;-77
2023/10/21 03:48:17;;;;;;;24.20;14.98;;;;;;;-146.61;100.00;58846.50;5116779;27;20685;-78
2023/10/21 03:51:05;;;;;;;27.38;15.88;;;;;;;-146.61;100.00;58846.50;5113882;27;20050;-78
2023/10/21 03:53:52;;;;;;;21.58;14.77;;;;;;;-146.61;100.00;58846.50;5114724;27;20161;-78
2023/10/21 03:56:39;;;;;;;23.02;15.75;;;;;;;-146.61;100.00;58846.50;5113432;27;20054;-80
2023/10/21 03:59:25;;;;;;;24.20;15.20;;;;;;;-146.61;100.00;58846.50;5114270;27;20678;-78
2023/10/21 04:02:12;;;;;;;24.45;15.52;;;;;;;-146.61;100.00;58846.50;5109568;27;20044;-76
2023/10/21 04:04:59;;;;;;;24.85;14.38;;;;;;;-146.61;100.00;58846.50;5111929;27;20047;-81
2023/10/21 04:07:46;;;;;;;21.67;13.75;;;;;;;-146.61;100.00;58846.50;5110516;27;20477;-78
2023/10/21 04:10:33;;;;;;;23.35;14.25;;;;;;;-146.61;100.00;58846.50;5115183;27;20055;-78
2023/10/21 04:13:20;;;;;;;22.27;13.68;;;;;;;-146.61;100.00;58846.50;5120037;27;20130;-79
2023/10/21 04:16:06;;;;;;;24.75;14.18;;;;;;;-146.61;100.00;58846.50;5116233;27;20057;-76
2023/10/21 04:18:53;;;;;;;22.75;15.27;;;;;;;-146.61;100.00;58846.50;5115294;27;20103;-77
2023/10/21 04:21:40;;;;;;;21.42;14.27;;;;;;;-146.61;100.00;58846.50;5111888;27;20054;-79
2023/10/21 04:24:26;;;;;;;26.33;16.23;;;;;;;-146.61;100.00;58846.50;5108860;27;20048;-76
2023/10/21 04:27:16;;;;;;;24.00;14.80;;;;;;;-146.61;100.00;58846.50;5110934;27;20742;-78
2023/10/21 04:30:03;;;;;;;23.80;14.00;;;;;;;-146.61;100.00;58846.50;5113421;27;20051;-77
2023/10/21 04:32:51;;;;;;;24.23;14.63;;;;;;;-146.61;100.00;58846.50;5114874;27;20104;-78
2023/10/21 04:35:37;;;;;;;23.20;16.15;;;;;;;-146.61;100.00;58846.50;5111713;27;20043;-79
2023/10/21 04:38:24;;;;;;;27.63;15.27;;;;;;;-146.61;100.00;58846.50;5112006;27;20130;-79
2023/10/21 04:41:11;;;;;;;27.65;17.50;;;;;;;-146.61;100.00;58846.50;5119447;27;20051;-78
2023/10/21 04:43:58;;;;;;;23.20;15.80;;;;;;;-146.61;100.00;58846.50;5113420;27;20043;-76
2023/10/21 04:46:44;;;;;;;25.70;16.70;;;;;;;-146.61;100.00;58846.50;5110645;27;20039;-76
2023/10/21 04:49:31;;;;;;;30.75;16.73;;;;;;;-146.61;100.00;58846.50;5117231;27;20046;-77
2023/10/21 04:52:19;;;;;;;27.15;15.30;;;;;;;-146.61;100.00;58846.50;5114089;27;20054;-77
2023/10/21 04:55:06;;;;;;;21.67;14.73;;;;;;;-146.61;100.00;58846.50;5121286;27;20054;-78
2023/10/21 04:57:52;;;;;;;25.55;16.42;;;;;;;-146.61;100.00;58846.50;5121722;27;20371;-79
2023/10/21 05:00:39;;;;;;;25.20;16.27;;;;;;;-146.61;100.00;58846.50;5114586;27;20039;-76
2023/10/21 05:03:26;;;;;;;22.80;14.93;;;;;;;-146.61;100.00;58846.50;5121502;27;20051;-77
2023/10/21 05:06:12;;;;;;;24.08;15.45;;;;;;;-146.61;100.00;58846.50;5111086;27;20070;-77
2023/10/21 05:08:59;;;;;;;25.60;15.77;;;;;;;-146.61;100.00;58846.50;5120621;27;20039;-78
2023/10/21 05:11:48;;;;;;;27.63;16.42;;;;;;;-146.61;100.00;58846.50;5112587;27;20055;-78
2023/10/21 05:14:35;;;;;;;26.30;17.08;;;;;;;-146.61;100.00;58846.50;5117319;27;20096;-77
2023/10/21 05:17:22;;;;;;;25.45;16.80;;;;;;;-146.61;100.00;58846.50;5122850;27;20053;-78
2023/10/21 05:20:09;;;;;;;24.23;17.48;;;;;;;-146.61;100.00;58846.50;5117517;27;20517;-79
2023/10/21 05:22:56;;;;;;;33.00;19.38;;;;;;;-146.61;100.00;58846.50;5116964;27;20486;-78
2023/10/21 05:25:42;;;;;;;25.92;17.15;;;;;;;-146.61;100.00;58846.50;5120952;27;20092;-77
2023/10/21 05:28:29;;;;;;;26.30;17.65;;;;;;;-146.61;100.00;58846.50;5117866;27;20039;-78
2023/10/21 05:31:16;;;;;;;24.40;16.58;;;;;;;-146.61;100.00;58846.50;5110427;27;20050;-78
2023/10/21 05:34:03;;;;;;;26.58;18.05;;;;;;;-146.61;100.00;58846.50;5111665;27;20043;-78
2023/10/21 05:36:49;;;;;;;24.60;16.13;;;;;;;-146.61;100.00;58846.50;5119580;27;20134;-77
2023/10/21 05:39:36;;;;;;;26.20;15.63;;;;;;;-146.61;100.00;58846.50;5114529;27;20287;-75
2023/10/21 05:42:23;;;;;;;24.10;16.27;;;;;;;-146.61;100.00;58846.50;5115165;27;20039;-77
2023/10/21 05:45:09;;;;;;;27.48;17.25;;;;;;;-146.61;100.00;58846.50;5117020;27;20054;-76
2023/10/21 05:47:56;;;;;;;26.13;16.65;;;;;;;-146.61;100.00;58846.50;5113586;27;20047;-78
2023/10/21 05:50:43;;;;;;;26.60;16.10;;;;;;;-146.61;100.00;58846.50;5113685;27;20592;-76
2023/10/21 05:53:30;;;;;;;21.30;14.75;;;;;;;-146.61;100.00;58846.50;5117763;27;20043;-80
2023/10/21 05:56:16;;;;;;;26.08;17.50;;;;;;;-146.61;100.00;58846.50;5116470;27;20126;-79
2023/10/21 05:59:04;;;;;;;26.25;15.27;;;;;;;-146.61;100.00;58846.50;5113190;27;20047;-76
2023/10/21 06:01:51;;;;;;;28.83;17.52;;;;;;;-146.61;100.00;58846.50;5113750;27;20707;-79
2023/10/21 06:04:38;;;;;;;24.27;16.17;;;;;;;-146.61;100.00;58846.50;5120690;27;20046;-77
2023/10/21 06:07:24;;;;;;;25.33;16.77;;;;;;;-146.61;100.00;58846.50;5118014;27;20046;-77
2023/10/21 06:10:11;;;;;;;28.25;15.50;;;;;;;-146.61;100.00;58846.50;5115814;27;20577;-77
2023/10/21 06:12:58;;;;;;;22.85;15.63;;;;;;;-146.61;100.00;58846.50;5111636;27;20122;-79
2023/10/21 06:15:45;;;;;;;30.30;17.90;;;;;;;-146.61;100.00;58846.50;5117790;27;20039;-79
2023/10/21 06:18:32;;;;;;;26.38;15.88;;;;;;;-146.61;100.00;58846.50;5116176;27;20047;-80
2023/10/21 06:21:19;;;;;;;25.90;15.52;;;;;;;-146.61;100.00;58846.50;5113492;27;20044;-78
2023/10/21 06:24:08;;;;;;;30.30;17.27;;;;;;;-146.61;100.00;58846.50;5115916;27;20047;-78
2023/10/21 06:26:55;;;;;;;24.52;16.40;;;;;;;-146.61;100.00;58846.50;5115842;27;20050;-79
2023/10/21 06:29:42;;;;;;;24.55;16.90;;;;;;;-146.61;100.00;58846.50;5114423;27;20047;-79
2023/10/21 06:32:29;;;;;;;26.63;16.20;;;;;;;-146.61;100.00;58846.50;5116805;27;20122;-80
2023/10/21 06:35:16;;;;;;;28.98;16.35;;;;;;;-146.61;100.00;58846.50;5114699;27;20069;-78
2023/10/21 06:38:03;;;;;;;27.80;17.55;;;;;;;-146.61;100.00;58846.50;5116631;27;20330;-80
2023/10/21 06:40:50;;;;;;;26.05;16.05;;;;;;;-146.61;100.00;58846.50;5119198;27;20187;-77
2023/10/21 06:43:38;;;;;;;25.95;15.52;;;;;;;-146.61;100.00;58846.50;5114294;27;20047;-79
2023/10/21 06:46:24;;;;;;;24.00;15.50;;;;;;;-146.61;100.00;58846.50;5113409;27;20700;-78
2023/10/21 06:49:11;;;;;;;27.15;16.50;;;;;;;-146.61;100.00;58846.50;5113633;27;20055;-77
2023/10/21 06:51:58;;;;;;;23.98;15.73;;;;;;;-146.61;100.00;58846.50;5109264;27;20062;-78
2023/10/21 06:54:45;;;;;;;23.65;14.95;;;;;;;-146.61;100.00;58846.50;5117898;27;20734;-80
2023/10/21 06:57:32;;;;;;;24.30;16.17;;;;;;;-146.61;100.00;58846.50;5113344;27;20055;-77
2023/10/21 07:00:19;;;;;;;27.83;15.77;;;;;;;-146.61;100.00;58846.50;5118966;27;20578;-78
2023/10/21 07:03:06;;;;;;;25.98;16.83;;;;;;;-146.61;100.00;58846.50;5114320;27;20046;-78
2023/10/21 07:05:53;;;;;;;25.58;16.45;;;;;;;-146.61;100.00;58846.50;5116485;27;20054;-77
2023/10/21 07:08:40;;;;;;;23.95;16.20;;;;;;;-146.61;100.00;58846.50;5118124;27;20035;-78
2023/10/21 07:11:26;;;;;;;25.00;15.48;;;;;;;-146.61;100.00;58846.50;5099530;27;20391;-77
2023/10/21 07:14:13;;;;;;;24.85;15.43;;;;;;;-146.61;100.00;58846.50;5101914;27;20093;-77
2023/10/21 07:17:01;;;;;;;20.92;14.75;;;;;;;-146.61;100.00;58846.50;5094764;27;20454;-80
2023/10/21 07:19:47;;;;;;;26.23;15.82;;;;;;;-146.61;100.00;58846.50;5092897;27;20071;-79
2023/10/21 07:22:36;;;;;;;23.73;15.48;;;;;;;-146.61;100.00;58846.50;5093241;27;20043;-79
2023/10/21 07:25:23;;;;;;;23.60;15.75;;;;;;;-146.61;100.00;58846.50;5091192;27;20080;-78
2023/10/21 07:28:10;;;;;;;23.30;15.55;;;;;;;-146.61;100.00;58846.50;5091985;27;20075;-78
2023/10/21 07:31:00;;;;;;;22.02;15.10;;;;;;;-146.61;100.00;58846.50;5092130;27;21004;-76
2023/10/21 07:33:47;;;;;;;24.90;14.50;;;;;;;-146.61;100.00;58846.50;5090392;27;20555;-79
2023/10/21 07:36:36;;;;;;;23.67;14.50;;;;;;;-146.61;100.00;58846.50;5091590;27;20047;-76
2023/10/21 07:39:22;;;;;;;25.13;15.90;;;;;;;-146.61;100.00;58846.50;5093445;27;20054;-78
2023/10/21 07:42:09;;;;;;;21.73;13.77;;;;;;;-146.61;100.00;58846.50;5088867;28;20062;-76
2023/10/21 07:44:57;;;;;;;22.42;15.27;;;;;;;-146.61;100.00;58846.50;5091271;27;20047;-79
2023/10/21 07:47:44;;;;;;;21.38;15.45;;;;;;;-146.61;100.00;58846.50;5092535;28;20036;-76
2023/10/21 07:50:30;;;;;;;21.67;15.43;;;;;;;-146.61;100.00;58846.50;5090182;27;20078;-76
2023/10/21 07:53:18;;;;;;;22.15;14.40;;;;;;;-146.61;100.00;58846.50;5090515;28;20808;-80
2023/10/21 07:56:04;;;;;;;22.95;14.38;;;;;;;-146.61;100.00;58846.50;5091366;28;20039;-80
2023/10/21 07:58:51;;;;;;;20.52;14.75;;;;;;;-146.61;100.00;58846.50;5094075;28;20698;-78
2023/10/21 08:01:39;;;;;;;21.65;15.02;;;;;;;-146.61;100.00;58846.50;5090426;28;20054;-77
2023/10/21 08:04:26;;;;;;;21.92;15.43;;;;;;;-146.61;100.00;58846.50;5094442;28;20040;-79
2023/10/21 08:07:13;;;;;;;23.10;14.63;;;;;;;-146.61;100.00;58846.50;5088170;28;20075;-80
2023/10/21 08:09:59;;;;;;;22.33;15.20;;;;;;;-146.61;100.00;58846.50;5092797;27;20051;-80
2023/10/21 08:12:46;;;;;;;24.95;15.18;;;;;;;-146.61;100.00;58846.50;5109918;27;20043;-77
2023/10/21 08:15:33;;;;;;;24.73;15.80;;;;;;;-146.61;100.00;58846.50;5112657;27;20047;-79
2023/10/21 08:18:19;;;;;;;21.48;15.48;;;;;;;-146.61;100.00;58846.50;5114072;27;21045;-76
2023/10/21 08:21:08;;;;;;;24.95;15.18;;;;;;;-146.61;100.00;58846.50;5111367;27;20047;-80
2023/10/21 08:23:56;;;;;;;21.30;15.00;;;;;;;-146.61;100.00;58846.50;5110284;27;20136;-81
2023/10/21 08:26:46;;;;;;;25.25;16.05;;;;;;;-146.61;100.00;58846.50;5115476;27;20051;-79
2023/10/21 08:29:33;;;;;;;24.55;14.95;;;;;;;-146.61;100.00;58846.50;5114126;27;20900;-78
2023/10/21 08:32:19;;;;;;;18.88;13.73;;;;;;;-146.61;100.00;58846.50;5114925;27;20051;-80
2023/10/21 08:35:06;;;;;;;25.67;16.77;;;;;;;-146.61;100.00;58846.50;5116027;27;20058;-76
2023/10/21 08:37:53;;;;;;;17.67;13.13;;;;;;;-146.61;100.00;58846.50;5120135;27;20097;-79
2023/10/21 08:40:41;;;;;;;21.67;14.45;;;;;;;-146.61;100.00;58846.50;5114951;27;20034;-80
2023/10/21 08:43:28;;;;;;;21.88;13.52;;;;;;;-146.61;100.00;58846.50;5113405;27;20039;-79
2023/10/21 08:46:18;;;;;;;22.02;14.55;;;;;;;-146.61;100.00;58846.50;5116743;27;20051;-75
2023/10/21 08:49:06;;;;;;;21.70;15.13;;;;;;;-146.61;100.00;58846.50;5117719;27;20042;-78
2023/10/21 08:51:54;;;;;;;17.83;13.65;;;;;;;-146.61;100.00;58846.50;5115897;27;20047;-78
2023/10/21 08:54:45;;;;;;;18.38;13.73;;;;;;;-146.61;100.00;58846.50;5115658;27;20043;-78
2023/10/21 08:57:33;;;;;;;21.00;12.82;;;;;;;-146.61;100.00;58846.50;5119110;27;20047;-79
2023/10/21 09:00:20;;;;;;;15.77;12.60;;;;;;;-146.61;100.00;58846.50;5115838;27;20137;-80
2023/10/21 09:03:08;;;;;;;13.13;11.30;;;;;;;-146.61;100.00;58846.50;5112863;27;20043;-76
2023/10/21 09:06:12;;;;;;;16.92;11.82;;;;;;;-146.61;100.00;58846.50;5117176;27;20187;-79
2023/10/21 09:08:58;;;;;;;17.30;11.07;;;;;;;-146.61;100.00;58846.50;5114323;27;20054;-77
2023/10/21 09:11:45;;;;;;;13.02;9.15;;;;;;;-146.61;100.00;58846.50;5121028;27;20054;-78
2023/10/21 09:14:55;;;;;;;12.90;10.35;;;;;;;-146.61;100.00;58846.50;5117939;27;20047;-77
2023/10/21 09:17:45;;;;;;;11.88;9.75;;;;;;;-146.61;100.00;58846.50;5119917;27;20050;-77
2023/10/21 09:20:34;;;;;;;10.90;8.55;;;;;;;-146.61;100.00;58846.50;5127904;27;20482;-76
2023/10/21 09:23:20;;;;;;;10.35;8.55;;;;;;;-146.61;100.00;58846.50;5123790;27;20054;-80
2023/10/21 09:26:08;;;;;;;10.25;9.15;;;;;;;-146.61;100.00;58846.50;5119091;27;20069;-78
2023/10/21 09:29:14;;;;;;;12.18;8.48;;;;;;;-146.61;100.00;58846.50;5120663;27;20056;-79
2023/10/21 09:32:01;;;;;;;8.68;5.82;;;;;;;-146.61;100.00;58846.50;5121025;27;20090;-77
2023/10/21 09:34:50;;;;;;;8.40;6.90;;;;;;;-146.61;100.00;58846.50;5113901;27;20055;-79
2023/10/21 09:37:37;;;;;;;6.55;5.68;;;;;;;-146.61;100.00;58846.50;5118680;27;20590;-80
2023/10/21 09:40:24;;;;;;;4.35;3.92;;;;;;;-146.61;100.00;58846.50;5124265;27;20051;-77
2023/10/21 09:43:14;;;;;;;3.78;3.10;;;;;;;-146.61;100.00;58846.50;5116888;27;20594;-80
2023/10/21 09:46:05;;;;;;;1.65;1.55;;;;;;;-146.61;100.00;58846.50;5118268;27;20058;-77
2023/10/21 09:48:53;;;;;;;2.08;1.33;;;;;;;-146.61;100.00;58846.50;5121097;27;20131;-76
2023/10/21 09:51:47;;;;;;;1.13;1.02;;;;;;;-146.61;100.00;58846.50;5118009;27;20093;-77
2023/10/21 09:55:03;;;;;;;0.85;0.85;;;;;;;-146.61;100.00;58846.50;5113727;27;20602;-78
2023/10/21 09:57:53;;;;;;;3.13;1.20;;;;;;;-146.61;100.00;58846.50;5112521;27;20059;-77
2023/10/21 10:00:40;;;;;;;0.73;0.70;;;;;;;-146.61;100.00;58846.50;5114511;27;20457;-78
2023/10/21 10:03:28;;;;;;;1.90;0.70;;;;;;;-146.61;100.00;58846.50;5123792;27;20121;-78
2023/10/21 10:06:15;;;;;;;1.65;0.88;;;;;;;-146.61;100.00;58846.50;5123080;27;20054;-80
2023/10/21 10:09:06;;;;;;;0.65;0.63;;;;;;;-146.61;100.00;58846.50;5118942;27;20058;-79
2023/10/21 10:11:59;;;;;;;1.25;0.55;;;;;;;-146.61;100.00;58846.50;5116842;27;20684;-78
2023/10/21 10:14:46;;;;;;;0.55;0.55;;;;;;;-146.61;100.00;58846.50;5120743;27;20075;-80
2023/10/21 10:17:49;;;;;;;1.02;0.90;;;;;;;-146.61;100.00;58846.50;5115553;27;20042;-77
2023/10/21 10:20:49;;;;;;;1.58;0.70;;;;;;;-146.61;100.00;58846.50;5117321;27;20092;-78
2023/10/21 10:23:36;;;;;;;2.88;1.23;;;;;;;-146.61;100.00;58846.50;5113982;27;20645;-77
2023/10/21 10:26:52;;;;;;;2.10;1.08;;;;;;;-146.61;100.00;58846.50;5112490;27;20051;-78
2023/10/21 10:29:39;;;;;;;0.93;0.65;;;;;;;-146.61;100.00;58846.50;5124022;27;20054;-79
2023/10/21 10:32:29;;;;;;;2.67;1.27;;;;;;;-146.61;100.00;58846.50;5113094;27;20047;-80
2023/10/21 10:35:40;;;;;;;0.88;0.80;;;;;;;-146.61;100.00;58846.50;5114068;27;20266;-81
2023/10/21 10:38:31;;;;;;;0.70;0.70;;;;;;;-146.61;100.00;58846.50;5114719;27;20128;-80
2023/10/21 10:41:19;;;;;;;2.58;0.80;;;;;;;-146.61;100.00;58846.50;5116157;27;20054;-79
2023/10/21 10:44:07;;;;;;;1.60;1.05;;;;;;;-146.61;100.00;58846.50;5117483;27;20700;-78
2023/10/21 10:46:53;;;;;;;1.10;0.90;;;;;;;-146.61;100.00;58846.50;5108997;27;20091;-77
2023/10/21 10:49:56;;;;;;;0.82;0.68;;;;;;;-146.61;100.00;58846.50;5117494;27;20044;-79
2023/10/21 10:52:46;;;;;;;0.68;0.50;;;;;;;-146.61;100.00;58846.50;5112842;27;20043;-78
2023/10/21 10:55:33;;;;;;;0.47;0.30;;;;;;;-146.61;100.00;58846.50;5108533;27;20123;-80
2023/10/21 10:58:19;;;;;;;0.95;0.82;;;;;;;-146.61;100.00;58846.50;5117232;27;20498;-78
2023/10/21 11:01:07;;;;;;;0.65;0.60;;;;;;;-146.61;100.00;58846.50;5116682;27;20684;-80
2023/10/21 11:03:58;;;;;;;1.98;0.60;;;;;;;-146.61;100.00;58846.50;5122344;27;20154;-80
2023/10/21 11:06:46;;;;;;;0.65;0.65;;;;;;;-146.61;100.00;58846.50;5119666;27;20058;-76
2023/10/21 11:09:33;;;;;;;0.28;0.28;;;;;;;-146.61;100.00;58846.50;5117050;27;20035;-81
2023/10/21 11:12:20;;;;;;;1.17;0.50;;;;;;;-146.61;100.00;58846.50;5116603;27;20047;-76
2023/10/21 11:15:07;;;;;;;0.10;0.10;;;;;;;-146.61;100.00;58846.50;5119356;27;20051;-80
2023/10/21 11:17:54;;;;;;;0.40;0.20;;;;;;;-146.61;100.00;58846.50;5120117;27;20058;-79
2023/10/21 11:20:48;;;;;;;0.50;0.20;;;;;;;-146.61;100.00;58846.50;5114100;27;21374;-78
2023/10/21 11:23:36;;;;;;;0.70;0.20;;;;;;;-146.61;100.00;58846.50;5115042;27;20157;-81
2023/10/21 11:26:23;;;;;;;0.30;0.25;;;;;;;-146.61;100.00;58846.50;5116461;27;20123;-79
2023/10/21 11:29:10;;;;;;;0.20;0.20;;;;;;;-146.61;100.00;58846.50;5110648;27;20834;-77
2023/10/21 11:31:59;;;;;;;0.50;0.40;;;;;;;-146.61;100.00;58846.50;5117496;27;20043;-78
2023/10/21 11:34:45;;;;;;;0.20;0.20;;;;;;;-146.61;100.00;58846.50;5106246;27;20047;-81
2023/10/21 11:37:32;;;;;;;0.63;0.20;;;;;;;-146.61;100.00;58846.50;5116772;27;20047;-78
2023/10/21 11:40:19;;;;;;;0.20;0.20;;;;;;;-146.61;100.00;58846.50;5116373;27;20062;-78
2023/10/21 11:43:12;;;;;;;0.43;0.13;;;;;;;-146.61;100.00;58846.50;5114530;27;20650;-80
2023/10/21 11:45:59;;;;;;;0.22;0.22;;;;;;;-146.61;100.00;58846.50;5104069;27;20067;-77
2023/10/21 11:48:49;;;;;;;1.13;0.20;;;;;;;-146.61;100.00;58846.50;5111593;27;20043;-80
2023/10/21 11:51:36;;;;;;;0.32;0.20;;;;;;;-146.61;100.00;58846.50;5114278;27;20077;-77
2023/10/21 11:54:32;;;;;;;3.40;0.17;;;;;;;-146.61;100.00;58846.50;5112226;27;20043;-77
2023/10/21 12:01:44;;;;;;;0.45;0.25;;;;;;;-146.61;100.00;58846.50;5114499;27;20038;-76
2023/10/21 12:13:37;;;;;;;1.40;0.20;;;;;;;-146.61;100.00;58846.50;5052345;28;20629;-77
2023/10/21 12:16:34;;;;;;;0.68;0.25;;;;;;;-146.61;100.00;58846.50;5056528;28;20155;-79
2023/10/21 12:31:54;;;;;;;1.88;0.28;;;;;;;-146.61;100.00;58846.50;5116449;27;20731;-80
2023/10/21 12:35:01;;;;;;;0.47;0.30;;;;;;;-146.61;100.00;58846.50;5118816;27;20772;-79
2023/10/21 12:41:15;;;;;;;0.32;0.10;;;;;;;-146.61;100.00;58846.50;5109939;27;20100;-78
2023/10/21 12:44:09;;;;;;;2.05;0.13;;;;;;;-146.61;100.00;58846.50;5116700;27;20047;-80
2023/10/21 12:47:01;;;;;;;0.85;0.22;;;;;;;-146.61;100.00;58846.50;5115133;27;20056;-76
2023/10/21 12:49:50;;;;;;;0.40;0.10;;;;;;;-146.61;100.00;58846.50;5116720;27;20047;-79
2023/10/21 12:52:36;;;;;;;0.13;0.13;;;;;;;-146.61;100.00;58846.50;5116739;27;20121;-78
2023/10/21 12:55:26;;;;;;;1.25;0.20;;;;;;;-146.61;100.00;58846.50;5116168;27;20039;-80
2023/10/21 12:58:14;;;;;;;0.63;0.15;;;;;;;-146.61;100.00;58846.50;5119070;27;20039;-76
2023/10/21 13:01:04;;;;;;;0.00;0.00;;;;;;;-146.61;100.00;58846.50;5121339;27;20209;-77